sensor_id;sensor_type;location;lat;lon;timestamp;temperature;humidity
19292;DHT22;9779;51.756;7.450;2023-03-23T00:01:54;11.10;99.90
19292;DHT22;9779;51.756;7.450;2023-03-23T00:04:20;11.10;99.90
19292;DHT22;9779;51.756;7.450;2023-03-23T00:06:46;11.10;99.90
19292;DHT22;9779;51.756;7.450;2023-03-23T00:09:13;11.10;99.90
19292;DHT22;9779;51.756;7.450;2023-03-23T00:11:41;11.10;99.90
19292;DHT22;9779;51.756;7.450;2023-03-23T00:14:06;11.10;99.90
19292;DHT22;9779;51.756;7.450;2023-03-23T00:16:38;11.10;99.90
19292;DHT22;9779;51.756;7.450;2023-03-23T00:19:08;11.10;99.90
19292;DHT22;9779;51.756;7.450;2023-03-23T00:21:38;11.10;99.90
19292;DHT22;9779;51.756;7.450;2023-03-23T00:24:13;11.10;99.90
19292;DHT22;9779;51.756;7.450;2023-03-23T00:26:42;11.00;99.90
19292;DHT22;9779;51.756;7.450;2023-03-23T00:29:16;11.10;99.90
19292;DHT22;9779;51.756;7.450;2023-03-23T00:31:43;11.00;99.90
19292;DHT22;9779;51.756;7.450;2023-03-23T00:34:12;11.00;99.90
19292;DHT22;9779;51.756;7.450;2023-03-23T00:36:39;11.00;99.90
19292;DHT22;9779;51.756;7.450;2023-03-23T00:39:10;11.00;99.90
19292;DHT22;9779;51.756;7.450;2023-03-23T00:41:35;11.10;99.90
19292;DHT22;9779;51.756;7.450;2023-03-23T00:44:02;11.00;99.90
19292;DHT22;9779;51.756;7.450;2023-03-23T00:46:28;11.00;99.90
19292;DHT22;9779;51.756;7.450;2023-03-23T00:48:55;11.00;99.90
19292;DHT22;9779;51.756;7.450;2023-03-23T00:51:22;11.00;99.90
19292;DHT22;9779;51.756;7.450;2023-03-23T00:53:48;11.00;99.90
19292;DHT22;9779;51.756;7.450;2023-03-23T00:56:14;11.00;99.90
19292;DHT22;9779;51.756;7.450;2023-03-23T00:58:39;11.00;99.90
19292;DHT22;9779;51.756;7.450;2023-03-23T01:01:05;11.00;99.90
19292;DHT22;9779;51.756;7.450;2023-03-23T01:03:31;11.00;99.90
19292;DHT22;9779;51.756;7.450;2023-03-23T01:05:57;11.00;99.90
19292;DHT22;9779;51.756;7.450;2023-03-23T01:08:24;11.00;99.90
19292;DHT22;9779;51.756;7.450;2023-03-23T01:10:50;11.00;99.90
19292;DHT22;9779;51.756;7.450;2023-03-23T01:13:16;11.00;99.90
19292;DHT22;9779;51.756;7.450;2023-03-23T01:15:42;11.00;99.90
19292;DHT22;9779;51.756;7.450;2023-03-23T01:18:09;11.00;99.90
19292;DHT22;9779;51.756;7.450;2023-03-23T01:20:36;11.00;99.90
19292;DHT22;9779;51.756;7.450;2023-03-23T01:23:02;11.00;99.90
19292;DHT22;9779;51.756;7.450;2023-03-23T01:25:30;11.00;99.90
19292;DHT22;9779;51.756;7.450;2023-03-23T01:27:57;11.00;99.90
19292;DHT22;9779;51.756;7.450;2023-03-23T01:30:23;11.00;99.90
19292;DHT22;9779;51.756;7.450;2023-03-23T01:32:49;11.00;99.90
19292;DHT22;9779;51.756;7.450;2023-03-23T01:35:15;11.00;99.90
19292;DHT22;9779;51.756;7.450;2023-03-23T01:37:41;11.00;99.90
19292;DHT22;9779;51.756;7.450;2023-03-23T01:40:08;11.10;99.90
19292;DHT22;9779;51.756;7.450;2023-03-23T01:42:35;11.10;99.90
19292;DHT22;9779;51.756;7.450;2023-03-23T01:48:01;11.10;99.90
19292;DHT22;9779;51.756;7.450;2023-03-23T01:50:30;11.10;99.90
19292;DHT22;9779;51.756;7.450;2023-03-23T01:52:58;11.20;99.90
19292;DHT22;9779;51.756;7.450;2023-03-23T01:55:26;11.20;99.90
19292;DHT22;9779;51.756;7.450;2023-03-23T01:57:54;11.20;99.90
19292;DHT22;9779;51.756;7.450;2023-03-23T02:00:21;11.20;99.90
19292;DHT22;9779;51.756;7.450;2023-03-23T02:02:48;11.20;99.90
19292;DHT22;9779;51.756;7.450;2023-03-23T02:05:24;11.20;99.90
19292;DHT22;9779;51.756;7.450;2023-03-23T02:07:53;11.20;99.90
19292;DHT22;9779;51.756;7.450;2023-03-23T02:10:19;11.20;99.90
19292;DHT22;9779;51.756;7.450;2023-03-23T02:12:44;11.30;99.90
19292;DHT22;9779;51.756;7.450;2023-03-23T02:15:10;11.30;99.90
19292;DHT22;9779;51.756;7.450;2023-03-23T02:18:11;11.30;99.90
19292;DHT22;9779;51.756;7.450;2023-03-23T02:20:54;11.30;99.90
19292;DHT22;9779;51.756;7.450;2023-03-23T02:26:28;11.30;99.90
19292;DHT22;9779;51.756;7.450;2023-03-23T02:32:27;11.30;99.90
19292;DHT22;9779;51.756;7.450;2023-03-23T02:34:59;11.30;99.90
19292;DHT22;9779;51.756;7.450;2023-03-23T02:37:39;11.30;99.90
19292;DHT22;9779;51.756;7.450;2023-03-23T02:40:12;11.30;99.90
19292;DHT22;9779;51.756;7.450;2023-03-23T02:42:41;11.30;99.90
19292;DHT22;9779;51.756;7.450;2023-03-23T02:45:10;11.30;99.90
19292;DHT22;9779;51.756;7.450;2023-03-23T02:47:38;11.30;99.90
19292;DHT22;9779;51.756;7.450;2023-03-23T02:50:07;11.30;99.90
19292;DHT22;9779;51.756;7.450;2023-03-23T02:52:35;11.30;99.90
19292;DHT22;9779;51.756;7.450;2023-03-23T02:55:02;11.30;99.90
19292;DHT22;9779;51.756;7.450;2023-03-23T02:57:28;11.30;99.90
19292;DHT22;9779;51.756;7.450;2023-03-23T02:59:54;11.20;99.90
19292;DHT22;9779;51.756;7.450;2023-03-23T03:02:26;11.30;99.90
19292;DHT22;9779;51.756;7.450;2023-03-23T03:08:07;11.30;99.90
19292;DHT22;9779;51.756;7.450;2023-03-23T03:13:35;11.30;99.90
19292;DHT22;9779;51.756;7.450;2023-03-23T03:16:41;11.30;99.90
19292;DHT22;9779;51.756;7.450;2023-03-23T03:19:17;11.30;99.90
19292;DHT22;9779;51.756;7.450;2023-03-23T03:21:46;11.30;99.90
19292;DHT22;9779;51.756;7.450;2023-03-23T03:24:16;11.30;99.90
19292;DHT22;9779;51.756;7.450;2023-03-23T03:26:46;11.30;99.90
19292;DHT22;9779;51.756;7.450;2023-03-23T03:29:14;11.30;99.90
19292;DHT22;9779;51.756;7.450;2023-03-23T03:31:43;11.30;99.90
19292;DHT22;9779;51.756;7.450;2023-03-23T03:34:11;11.30;99.90
19292;DHT22;9779;51.756;7.450;2023-03-23T03:36:37;11.30;99.90
19292;DHT22;9779;51.756;7.450;2023-03-23T03:39:06;11.30;99.90
19292;DHT22;9779;51.756;7.450;2023-03-23T03:41:37;11.30;99.90
19292;DHT22;9779;51.756;7.450;2023-03-23T03:44:04;11.30;99.90
19292;DHT22;9779;51.756;7.450;2023-03-23T03:46:30;11.30;99.90
19292;DHT22;9779;51.756;7.450;2023-03-23T03:49:00;11.30;99.90
19292;DHT22;9779;51.756;7.450;2023-03-23T03:51:27;11.30;99.90
19292;DHT22;9779;51.756;7.450;2023-03-23T03:53:53;11.30;99.90
19292;DHT22;9779;51.756;7.450;2023-03-23T03:56:19;11.40;99.90
19292;DHT22;9779;51.756;7.450;2023-03-23T03:58:45;11.40;99.90
19292;DHT22;9779;51.756;7.450;2023-03-23T04:01:14;11.40;99.90
19292;DHT22;9779;51.756;7.450;2023-03-23T04:03:40;11.40;99.90
19292;DHT22;9779;51.756;7.450;2023-03-23T04:06:06;11.40;99.90
19292;DHT22;9779;51.756;7.450;2023-03-23T04:08:34;11.40;99.90
19292;DHT22;9779;51.756;7.450;2023-03-23T04:10:59;11.40;99.90
19292;DHT22;9779;51.756;7.450;2023-03-23T04:13:25;11.40;99.90
19292;DHT22;9779;51.756;7.450;2023-03-23T04:15:51;11.40;99.90
19292;DHT22;9779;51.756;7.450;2023-03-23T04:18:17;11.40;99.90
19292;DHT22;9779;51.756;7.450;2023-03-23T04:20:44;11.40;99.90
19292;DHT22;9779;51.756;7.450;2023-03-23T04:23:16;11.50;99.90
19292;DHT22;9779;51.756;7.450;2023-03-23T04:25:46;11.50;99.90
19292;DHT22;9779;51.756;7.450;2023-03-23T04:28:13;11.50;99.90
19292;DHT22;9779;51.756;7.450;2023-03-23T04:30:42;11.60;99.90
19292;DHT22;9779;51.756;7.450;2023-03-23T04:33:09;11.60;99.90
19292;DHT22;9779;51.756;7.450;2023-03-23T04:35:40;11.60;99.90
19292;DHT22;9779;51.756;7.450;2023-03-23T04:38:06;11.60;99.90
19292;DHT22;9779;51.756;7.450;2023-03-23T04:40:36;11.60;99.90
19292;DHT22;9779;51.756;7.450;2023-03-23T04:43:02;11.60;99.90
19292;DHT22;9779;51.756;7.450;2023-03-23T04:45:32;11.60;99.90
19292;DHT22;9779;51.756;7.450;2023-03-23T04:47:58;11.60;99.90
19292;DHT22;9779;51.756;7.450;2023-03-23T04:50:29;11.60;99.90
19292;DHT22;9779;51.756;7.450;2023-03-23T04:52:57;11.60;99.90
19292;DHT22;9779;51.756;7.450;2023-03-23T04:55:25;11.60;99.90
19292;DHT22;9779;51.756;7.450;2023-03-23T04:57:51;11.60;99.90
19292;DHT22;9779;51.756;7.450;2023-03-23T05:00:18;11.60;99.90
19292;DHT22;9779;51.756;7.450;2023-03-23T05:02:46;11.60;99.90
19292;DHT22;9779;51.756;7.450;2023-03-23T05:05:13;11.70;99.90
19292;DHT22;9779;51.756;7.450;2023-03-23T05:07:40;11.60;99.90
19292;DHT22;9779;51.756;7.450;2023-03-23T05:10:07;11.70;99.30
19292;DHT22;9779;51.756;7.450;2023-03-23T05:12:34;11.60;99.90
19292;DHT22;9779;51.756;7.450;2023-03-23T05:14:59;11.70;88.00
19292;DHT22;9779;51.756;7.450;2023-03-23T05:17:25;11.70;89.50
19292;DHT22;9779;51.756;7.450;2023-03-23T05:19:51;11.70;94.20
19292;DHT22;9779;51.756;7.450;2023-03-23T05:22:17;11.60;95.30
19292;DHT22;9779;51.756;7.450;2023-03-23T05:24:43;11.70;79.50
19292;DHT22;9779;51.756;7.450;2023-03-23T05:27:09;11.70;85.40
19292;DHT22;9779;51.756;7.450;2023-03-23T05:29:35;11.70;67.00
19292;DHT22;9779;51.756;7.450;2023-03-23T05:32:04;11.70;70.20
19292;DHT22;9779;51.756;7.450;2023-03-23T05:34:31;11.70;76.50
19292;DHT22;9779;51.756;7.450;2023-03-23T05:37:00;11.80;59.10
19292;DHT22;9779;51.756;7.450;2023-03-23T05:39:27;11.70;58.80
19292;DHT22;9779;51.756;7.450;2023-03-23T05:41:53;11.80;39.70
19292;DHT22;9779;51.756;7.450;2023-03-23T05:44:20;11.80;44.50
19292;DHT22;9779;51.756;7.450;2023-03-23T05:46:45;11.80;50.40
19292;DHT22;9779;51.756;7.450;2023-03-23T05:49:11;11.80;57.10
19292;DHT22;9779;51.756;7.450;2023-03-23T05:51:37;11.80;44.60
19292;DHT22;9779;51.756;7.450;2023-03-23T05:54:02;11.80;46.80
19292;DHT22;9779;51.756;7.450;2023-03-23T05:56:28;11.80;25.60
19292;DHT22;9779;51.756;7.450;2023-03-23T05:58:57;11.80;22.50
19292;DHT22;9779;51.756;7.450;2023-03-23T06:01:24;11.80;8.10
19292;DHT22;9779;51.756;7.450;2023-03-23T06:03:49;11.80;9.40
19292;DHT22;9779;51.756;7.450;2023-03-23T06:06:20;11.80;5.60
19292;DHT22;9779;51.756;7.450;2023-03-23T06:08:45;11.80;5.90
19292;DHT22;9779;51.756;7.450;2023-03-23T06:11:11;11.80;3.20
19292;DHT22;9779;51.756;7.450;2023-03-23T06:13:37;11.90;5.50
19292;DHT22;9779;51.756;7.450;2023-03-23T06:16:03;11.90;1.40
19292;DHT22;9779;51.756;7.450;2023-03-23T06:18:29;11.80;1.00
19292;DHT22;9779;51.756;7.450;2023-03-23T06:20:55;11.80;1.00
19292;DHT22;9779;51.756;7.450;2023-03-23T06:23:21;11.90;1.00
19292;DHT22;9779;51.756;7.450;2023-03-23T06:25:46;11.90;1.00
19292;DHT22;9779;51.756;7.450;2023-03-23T06:28:12;11.90;1.00
19292;DHT22;9779;51.756;7.450;2023-03-23T06:30:37;11.90;1.00
19292;DHT22;9779;51.756;7.450;2023-03-23T06:33:03;11.90;1.00
19292;DHT22;9779;51.756;7.450;2023-03-23T06:35:31;11.90;1.00
19292;DHT22;9779;51.756;7.450;2023-03-23T06:37:57;11.90;1.00
19292;DHT22;9779;51.756;7.450;2023-03-23T06:40:27;12.00;1.00
19292;DHT22;9779;51.756;7.450;2023-03-23T06:42:54;11.90;2.80
19292;DHT22;9779;51.756;7.450;2023-03-23T06:45:19;11.90;5.00
19292;DHT22;9779;51.756;7.450;2023-03-23T06:47:46;11.90;1.00
19292;DHT22;9779;51.756;7.450;2023-03-23T06:50:14;11.90;6.80
19292;DHT22;9779;51.756;7.450;2023-03-23T06:52:40;11.90;13.10
19292;DHT22;9779;51.756;7.450;2023-03-23T06:55:06;11.90;7.90
19292;DHT22;9779;51.756;7.450;2023-03-23T06:57:32;11.90;1.00
19292;DHT22;9779;51.756;7.450;2023-03-23T06:59:57;12.00;1.00
19292;DHT22;9779;51.756;7.450;2023-03-23T07:02:23;12.00;1.00
19292;DHT22;9779;51.756;7.450;2023-03-23T07:04:49;12.00;1.00
19292;DHT22;9779;51.756;7.450;2023-03-23T07:07:15;12.00;1.00
19292;DHT22;9779;51.756;7.450;2023-03-23T07:09:44;12.00;1.00
19292;DHT22;9779;51.756;7.450;2023-03-23T07:12:09;12.10;1.00
19292;DHT22;9779;51.756;7.450;2023-03-23T07:14:35;12.00;1.00
19292;DHT22;9779;51.756;7.450;2023-03-23T07:17:03;12.00;1.00
19292;DHT22;9779;51.756;7.450;2023-03-23T07:19:29;12.00;1.00
19292;DHT22;9779;51.756;7.450;2023-03-23T07:21:55;12.00;1.00
19292;DHT22;9779;51.756;7.450;2023-03-23T07:24:22;12.10;1.00
19292;DHT22;9779;51.756;7.450;2023-03-23T07:26:48;12.10;1.00
19292;DHT22;9779;51.756;7.450;2023-03-23T07:29:13;12.10;1.00
19292;DHT22;9779;51.756;7.450;2023-03-23T07:31:39;12.10;1.00
19292;DHT22;9779;51.756;7.450;2023-03-23T07:34:04;12.10;1.00
19292;DHT22;9779;51.756;7.450;2023-03-23T07:36:31;12.10;1.00
19292;DHT22;9779;51.756;7.450;2023-03-23T07:38:56;12.20;1.00
19292;DHT22;9779;51.756;7.450;2023-03-23T07:41:23;12.20;1.00
19292;DHT22;9779;51.756;7.450;2023-03-23T07:43:48;12.20;1.00
19292;DHT22;9779;51.756;7.450;2023-03-23T07:46:14;12.20;1.00
19292;DHT22;9779;51.756;7.450;2023-03-23T07:48:40;12.20;1.00
19292;DHT22;9779;51.756;7.450;2023-03-23T07:51:06;12.30;1.00
19292;DHT22;9779;51.756;7.450;2023-03-23T07:53:33;12.30;1.00
19292;DHT22;9779;51.756;7.450;2023-03-23T07:55:59;12.30;1.00
19292;DHT22;9779;51.756;7.450;2023-03-23T07:58:24;12.20;1.00
19292;DHT22;9779;51.756;7.450;2023-03-23T08:00:52;12.30;1.00
19292;DHT22;9779;51.756;7.450;2023-03-23T08:03:18;12.30;1.00
19292;DHT22;9779;51.756;7.450;2023-03-23T08:05:43;12.30;1.00
19292;DHT22;9779;51.756;7.450;2023-03-23T08:08:09;12.30;1.00
19292;DHT22;9779;51.756;7.450;2023-03-23T08:10:36;12.30;1.00
19292;DHT22;9779;51.756;7.450;2023-03-23T08:13:02;12.30;1.00
19292;DHT22;9779;51.756;7.450;2023-03-23T08:15:28;12.30;1.00
19292;DHT22;9779;51.756;7.450;2023-03-23T08:17:54;12.40;1.00
19292;DHT22;9779;51.756;7.450;2023-03-23T08:20:21;12.40;1.00
19292;DHT22;9779;51.756;7.450;2023-03-23T08:22:53;12.40;1.00
19292;DHT22;9779;51.756;7.450;2023-03-23T08:25:20;12.40;1.00
19292;DHT22;9779;51.756;7.450;2023-03-23T08:27:46;12.50;1.00
19292;DHT22;9779;51.756;7.450;2023-03-23T08:30:15;12.50;1.00
19292;DHT22;9779;51.756;7.450;2023-03-23T08:32:41;12.60;1.00
19292;DHT22;9779;51.756;7.450;2023-03-23T08:35:09;12.60;1.00
19292;DHT22;9779;51.756;7.450;2023-03-23T08:37:35;12.60;1.00
19292;DHT22;9779;51.756;7.450;2023-03-23T08:40:01;12.60;1.00
19292;DHT22;9779;51.756;7.450;2023-03-23T08:42:32;12.70;1.00
19292;DHT22;9779;51.756;7.450;2023-03-23T08:44:58;12.70;1.00
19292;DHT22;9779;51.756;7.450;2023-03-23T08:47:24;12.80;1.00
19292;DHT22;9779;51.756;7.450;2023-03-23T08:49:50;12.80;1.00
19292;DHT22;9779;51.756;7.450;2023-03-23T08:52:18;12.90;1.00
19292;DHT22;9779;51.756;7.450;2023-03-23T08:54:44;12.90;1.00
19292;DHT22;9779;51.756;7.450;2023-03-23T08:57:12;12.90;1.00
19292;DHT22;9779;51.756;7.450;2023-03-23T08:59:38;12.90;1.00
19292;DHT22;9779;51.756;7.450;2023-03-23T09:02:04;12.80;1.00
19292;DHT22;9779;51.756;7.450;2023-03-23T09:04:29;12.80;1.00
19292;DHT22;9779;51.756;7.450;2023-03-23T09:06:55;12.80;1.00
19292;DHT22;9779;51.756;7.450;2023-03-23T09:09:22;12.80;1.00
19292;DHT22;9779;51.756;7.450;2023-03-23T09:11:48;12.80;1.00
19292;DHT22;9779;51.756;7.450;2023-03-23T09:14:13;12.80;1.00
19292;DHT22;9779;51.756;7.450;2023-03-23T09:16:39;12.80;1.00
19292;DHT22;9779;51.756;7.450;2023-03-23T09:19:05;12.80;1.00
19292;DHT22;9779;51.756;7.450;2023-03-23T09:21:34;12.80;1.00
19292;DHT22;9779;51.756;7.450;2023-03-23T09:23:59;12.80;1.00
19292;DHT22;9779;51.756;7.450;2023-03-23T09:26:27;12.80;1.00
19292;DHT22;9779;51.756;7.450;2023-03-23T09:28:53;12.80;1.00
19292;DHT22;9779;51.756;7.450;2023-03-23T09:31:19;12.80;1.00
19292;DHT22;9779;51.756;7.450;2023-03-23T09:33:49;12.80;1.00
19292;DHT22;9779;51.756;7.450;2023-03-23T09:36:18;12.80;1.00
19292;DHT22;9779;51.756;7.450;2023-03-23T09:38:43;12.80;1.00
19292;DHT22;9779;51.756;7.450;2023-03-23T09:41:19;12.80;1.00
19292;DHT22;9779;51.756;7.450;2023-03-23T09:44:03;12.80;99.90
19292;DHT22;9779;51.756;7.450;2023-03-23T09:46:52;12.90;99.90
19292;DHT22;9779;51.756;7.450;2023-03-23T09:49:28;12.90;99.90
19292;DHT22;9779;51.756;7.450;2023-03-23T09:52:00;13.00;99.90
19292;DHT22;9779;51.756;7.450;2023-03-23T09:54:37;12.90;1.00
19292;DHT22;9779;51.756;7.450;2023-03-23T09:57:10;12.90;1.00
19292;DHT22;9779;51.756;7.450;2023-03-23T09:59:47;12.80;1.00
19292;DHT22;9779;51.756;7.450;2023-03-23T10:02:27;12.60;1.00
19292;DHT22;9779;51.756;7.450;2023-03-23T10:04:56;12.20;1.00
19292;DHT22;9779;51.756;7.450;2023-03-23T10:07:25;11.80;1.00
19292;DHT22;9779;51.756;7.450;2023-03-23T10:09:56;11.50;1.00
19292;DHT22;9779;51.756;7.450;2023-03-23T10:15:19;11.20;1.00
19292;DHT22;9779;51.756;7.450;2023-03-23T10:18:04;11.10;1.00
19292;DHT22;9779;51.756;7.450;2023-03-23T10:20:50;11.10;1.00
19292;DHT22;9779;51.756;7.450;2023-03-23T10:28:41;11.20;1.00
19292;DHT22;9779;51.756;7.450;2023-03-23T10:31:12;11.10;1.00
19292;DHT22;9779;51.756;7.450;2023-03-23T10:33:39;11.10;1.00
19292;DHT22;9779;51.756;7.450;2023-03-23T10:36:12;11.10;1.00
19292;DHT22;9779;51.756;7.450;2023-03-23T10:38:45;11.10;1.00
19292;DHT22;9779;51.756;7.450;2023-03-23T10:41:16;11.10;1.00
19292;DHT22;9779;51.756;7.450;2023-03-23T10:43:44;11.10;1.00
19292;DHT22;9779;51.756;7.450;2023-03-23T10:46:38;11.00;1.00
19292;DHT22;9779;51.756;7.450;2023-03-23T10:49:09;11.00;1.00
19292;DHT22;9779;51.756;7.450;2023-03-23T10:51:46;11.00;1.00
19292;DHT22;9779;51.756;7.450;2023-03-23T10:54:26;11.00;1.00
19292;DHT22;9779;51.756;7.450;2023-03-23T10:56:52;11.00;1.00
19292;DHT22;9779;51.756;7.450;2023-03-23T10:59:20;11.00;1.00
19292;DHT22;9779;51.756;7.450;2023-03-23T11:01:50;11.00;1.00
19292;DHT22;9779;51.756;7.450;2023-03-23T11:04:18;11.00;3.50
19292;DHT22;9779;51.756;7.450;2023-03-23T11:06:52;11.10;40.10
19292;DHT22;9779;51.756;7.450;2023-03-23T11:09:22;11.10;57.10
19292;DHT22;9779;51.756;7.450;2023-03-23T11:11:58;11.00;1.00
19292;DHT22;9779;51.756;7.450;2023-03-23T11:14:34;11.10;5.20
19292;DHT22;9779;51.756;7.450;2023-03-23T11:17:05;11.10;21.50
19292;DHT22;9779;51.756;7.450;2023-03-23T11:19:45;11.20;24.00
19292;DHT22;9779;51.756;7.450;2023-03-23T11:24:52;11.20;1.00
19292;DHT22;9779;51.756;7.450;2023-03-23T11:27:19;11.30;1.00
19292;DHT22;9779;51.756;7.450;2023-03-23T11:30:14;11.40;1.00
19292;DHT22;9779;51.756;7.450;2023-03-23T11:32:44;11.30;1.00
19292;DHT22;9779;51.756;7.450;2023-03-23T11:35:22;11.30;1.00
19292;DHT22;9779;51.756;7.450;2023-03-23T11:37:53;11.30;1.00
19292;DHT22;9779;51.756;7.450;2023-03-23T11:40:23;11.30;1.00
19292;DHT22;9779;51.756;7.450;2023-03-23T11:48:05;11.30;1.00
19292;DHT22;9779;51.756;7.450;2023-03-23T11:56:30;11.40;8.90
19292;DHT22;9779;51.756;7.450;2023-03-23T11:58:57;11.30;85.80
19292;DHT22;9779;51.756;7.450;2023-03-23T12:07:27;11.40;99.90
19292;DHT22;9779;51.756;7.450;2023-03-23T12:10:19;11.40;99.90
19292;DHT22;9779;51.756;7.450;2023-03-23T12:15:51;11.50;99.90
19292;DHT22;9779;51.756;7.450;2023-03-23T12:18:30;11.40;99.90
19292;DHT22;9779;51.756;7.450;2023-03-23T12:26:46;11.50;99.90
19292;DHT22;9779;51.756;7.450;2023-03-23T12:32:32;11.50;99.90
19292;DHT22;9779;51.756;7.450;2023-03-23T12:35:13;11.50;99.90
19292;DHT22;9779;51.756;7.450;2023-03-23T12:40:48;11.60;99.90
19292;DHT22;9779;51.756;7.450;2023-03-23T12:49:24;11.50;99.90
19292;DHT22;9779;51.756;7.450;2023-03-23T12:52:06;11.40;99.90
19292;DHT22;9779;51.756;7.450;2023-03-23T12:57:38;11.60;99.90
19292;DHT22;9779;51.756;7.450;2023-03-23T13:06:04;11.70;99.90
19292;DHT22;9779;51.756;7.450;2023-03-23T13:08:37;11.70;99.90
19292;DHT22;9779;51.756;7.450;2023-03-23T13:11:11;11.80;99.90
19292;DHT22;9779;51.756;7.450;2023-03-23T13:22:17;12.00;99.90
19292;DHT22;9779;51.756;7.450;2023-03-23T13:24:54;12.20;99.90
19292;DHT22;9779;51.756;7.450;2023-03-23T13:27:25;12.30;99.90
19292;DHT22;9779;51.756;7.450;2023-03-23T13:29:56;12.30;99.90
19292;DHT22;9779;51.756;7.450;2023-03-23T13:34:55;12.40;99.90
19292;DHT22;9779;51.756;7.450;2023-03-23T13:37:24;12.30;99.90
19292;DHT22;9779;51.756;7.450;2023-03-23T13:39:56;12.50;99.90
19292;DHT22;9779;51.756;7.450;2023-03-23T13:42:26;12.40;99.90
19292;DHT22;9779;51.756;7.450;2023-03-23T13:49:56;12.40;99.90
19292;DHT22;9779;51.756;7.450;2023-03-23T14:10:44;12.90;99.90
19292;DHT22;9779;51.756;7.450;2023-03-23T14:13:42;12.90;99.90
19292;DHT22;9779;51.756;7.450;2023-03-23T14:16:19;12.90;99.90
19292;DHT22;9779;51.756;7.450;2023-03-23T14:18:55;12.90;99.90
19292;DHT22;9779;51.756;7.450;2023-03-23T14:21:41;13.00;99.90
19292;DHT22;9779;51.756;7.450;2023-03-23T14:24:17;13.20;99.90
19292;DHT22;9779;51.756;7.450;2023-03-23T14:26:45;13.20;60.00
19292;DHT22;9779;51.756;7.450;2023-03-23T14:29:12;13.20;55.70
19292;DHT22;9779;51.756;7.450;2023-03-23T14:31:39;13.20;61.80
19292;DHT22;9779;51.756;7.450;2023-03-23T14:34:18;13.50;81.00
19292;DHT22;9779;51.756;7.450;2023-03-23T14:36:45;14.10;1.00
19292;DHT22;9779;51.756;7.450;2023-03-23T14:39:24;14.10;1.00
19292;DHT22;9779;51.756;7.450;2023-03-23T14:41:51;13.90;1.00
19292;DHT22;9779;51.756;7.450;2023-03-23T14:44:29;14.00;1.00
19292;DHT22;9779;51.756;7.450;2023-03-23T14:46:56;13.90;1.00
19292;DHT22;9779;51.756;7.450;2023-03-23T14:49:34;13.80;1.00
19292;DHT22;9779;51.756;7.450;2023-03-23T14:52:12;14.10;1.00
19292;DHT22;9779;51.756;7.450;2023-03-23T14:54:39;14.30;1.00
19292;DHT22;9779;51.756;7.450;2023-03-23T14:57:14;14.50;1.00
19292;DHT22;9779;51.756;7.450;2023-03-23T14:59:42;14.90;1.00
19292;DHT22;9779;51.756;7.450;2023-03-23T15:02:20;15.40;1.00
19292;DHT22;9779;51.756;7.450;2023-03-23T15:05:01;15.40;1.00
19292;DHT22;9779;51.756;7.450;2023-03-23T15:07:33;15.10;1.00
19292;DHT22;9779;51.756;7.450;2023-03-23T15:09:59;14.90;1.00
19292;DHT22;9779;51.756;7.450;2023-03-23T15:12:27;14.70;1.00
19292;DHT22;9779;51.756;7.450;2023-03-23T15:15:03;14.50;1.00
19292;DHT22;9779;51.756;7.450;2023-03-23T15:17:34;14.30;1.00
19292;DHT22;9779;51.756;7.450;2023-03-23T15:20:09;14.40;1.00
19292;DHT22;9779;51.756;7.450;2023-03-23T15:22:35;14.20;1.00
19292;DHT22;9779;51.756;7.450;2023-03-23T15:27:52;14.20;1.00
19292;DHT22;9779;51.756;7.450;2023-03-23T15:33:08;14.20;1.00
19292;DHT22;9779;51.756;7.450;2023-03-23T15:35:39;14.20;1.00
19292;DHT22;9779;51.756;7.450;2023-03-23T15:38:17;14.30;1.00
19292;DHT22;9779;51.756;7.450;2023-03-23T15:40:43;14.30;1.00
19292;DHT22;9779;51.756;7.450;2023-03-23T15:43:28;14.30;1.00
19292;DHT22;9779;51.756;7.450;2023-03-23T15:46:05;14.10;1.00
19292;DHT22;9779;51.756;7.450;2023-03-23T15:48:52;14.00;1.00
19292;DHT22;9779;51.756;7.450;2023-03-23T15:51:23;14.20;1.00
19292;DHT22;9779;51.756;7.450;2023-03-23T15:53:54;14.40;1.00
19292;DHT22;9779;51.756;7.450;2023-03-23T15:56:20;14.50;1.00
19292;DHT22;9779;51.756;7.450;2023-03-23T15:58:47;14.50;1.00
19292;DHT22;9779;51.756;7.450;2023-03-23T16:01:18;14.40;1.00
19292;DHT22;9779;51.756;7.450;2023-03-23T16:04:22;14.30;1.00
19292;DHT22;9779;51.756;7.450;2023-03-23T16:06:42;14.20;1.00
19292;DHT22;9779;51.756;7.450;2023-03-23T16:09:16;14.20;1.00
19292;DHT22;9779;51.756;7.450;2023-03-23T16:11:42;14.20;1.00
19292;DHT22;9779;51.756;7.450;2023-03-23T16:14:07;14.20;1.00
19292;DHT22;9779;51.756;7.450;2023-03-23T16:19:02;14.30;1.00
19292;DHT22;9779;51.756;7.450;2023-03-23T16:21:27;14.30;1.00
19292;DHT22;9779;51.756;7.450;2023-03-23T16:23:53;14.20;1.00
19292;DHT22;9779;51.756;7.450;2023-03-23T16:26:19;14.20;1.00
19292;DHT22;9779;51.756;7.450;2023-03-23T16:28:44;14.20;1.00
19292;DHT22;9779;51.756;7.450;2023-03-23T16:31:10;14.20;1.00
19292;DHT22;9779;51.756;7.450;2023-03-23T16:33:36;14.20;1.00
19292;DHT22;9779;51.756;7.450;2023-03-23T16:36:02;14.10;1.00
19292;DHT22;9779;51.756;7.450;2023-03-23T16:38:28;14.10;1.00
19292;DHT22;9779;51.756;7.450;2023-03-23T16:40:53;14.00;1.00
19292;DHT22;9779;51.756;7.450;2023-03-23T16:43:20;14.00;1.00
19292;DHT22;9779;51.756;7.450;2023-03-23T16:45:46;13.90;1.00
19292;DHT22;9779;51.756;7.450;2023-03-23T16:48:14;13.90;1.00
19292;DHT22;9779;51.756;7.450;2023-03-23T16:50:40;13.90;1.00
19292;DHT22;9779;51.756;7.450;2023-03-23T16:53:07;13.80;1.00
19292;DHT22;9779;51.756;7.450;2023-03-23T16:55:34;13.90;1.00
19292;DHT22;9779;51.756;7.450;2023-03-23T16:58:01;13.80;1.00
19292;DHT22;9779;51.756;7.450;2023-03-23T17:00:26;13.80;1.00
19292;DHT22;9779;51.756;7.450;2023-03-23T17:02:53;13.80;1.00
19292;DHT22;9779;51.756;7.450;2023-03-23T17:05:22;13.80;1.00
19292;DHT22;9779;51.756;7.450;2023-03-23T17:07:48;13.70;1.00
19292;DHT22;9779;51.756;7.450;2023-03-23T17:10:15;13.70;1.00
19292;DHT22;9779;51.756;7.450;2023-03-23T17:12:41;13.70;1.00
19292;DHT22;9779;51.756;7.450;2023-03-23T17:15:08;13.60;1.00
19292;DHT22;9779;51.756;7.450;2023-03-23T17:17:34;13.60;1.00
19292;DHT22;9779;51.756;7.450;2023-03-23T17:20:00;13.60;1.00
19292;DHT22;9779;51.756;7.450;2023-03-23T17:22:26;13.60;1.00
19292;DHT22;9779;51.756;7.450;2023-03-23T17:24:52;13.60;1.00
19292;DHT22;9779;51.756;7.450;2023-03-23T17:27:20;13.60;1.00
19292;DHT22;9779;51.756;7.450;2023-03-23T17:29:46;13.50;1.00
19292;DHT22;9779;51.756;7.450;2023-03-23T17:32:12;13.50;1.00
19292;DHT22;9779;51.756;7.450;2023-03-23T17:34:38;13.50;1.00
19292;DHT22;9779;51.756;7.450;2023-03-23T17:37:04;13.50;1.00
19292;DHT22;9779;51.756;7.450;2023-03-23T17:39:31;13.50;1.00
19292;DHT22;9779;51.756;7.450;2023-03-23T17:41:58;13.40;1.00
19292;DHT22;9779;51.756;7.450;2023-03-23T17:44:23;13.40;1.00
19292;DHT22;9779;51.756;7.450;2023-03-23T17:46:49;13.40;1.00
19292;DHT22;9779;51.756;7.450;2023-03-23T17:49:15;13.40;1.00
19292;DHT22;9779;51.756;7.450;2023-03-23T17:51:40;13.30;1.00
19292;DHT22;9779;51.756;7.450;2023-03-23T17:54:06;13.30;1.00
19292;DHT22;9779;51.756;7.450;2023-03-23T17:56:32;13.30;1.00
19292;DHT22;9779;51.756;7.450;2023-03-23T17:58:58;13.30;1.00
19292;DHT22;9779;51.756;7.450;2023-03-23T18:01:23;13.30;1.00
19292;DHT22;9779;51.756;7.450;2023-03-23T18:03:49;13.20;1.00